sensor_id;sensor_type;location;lat;lon;timestamp;temperature;humidity
54124;DHT22;55741;53.252;5.788;2023-04-24T00:00:20;10.80;99.90
54124;DHT22;55741;53.252;5.788;2023-04-24T00:02:46;10.80;99.90
54124;DHT22;55741;53.252;5.788;2023-04-24T00:05:14;10.80;99.90
54124;DHT22;55741;53.252;5.788;2023-04-24T00:07:41;10.80;99.90
54124;DHT22;55741;53.252;5.788;2023-04-24T00:10:08;10.80;99.90
54124;DHT22;55741;53.252;5.788;2023-04-24T00:12:34;10.80;99.90
54124;DHT22;55741;53.252;5.788;2023-04-24T00:15:00;10.80;99.90
54124;DHT22;55741;53.252;5.788;2023-04-24T00:17:26;10.80;99.90
54124;DHT22;55741;53.252;5.788;2023-04-24T00:19:52;10.80;99.90
54124;DHT22;55741;53.252;5.788;2023-04-24T00:22:27;10.80;99.90
54124;DHT22;55741;53.252;5.788;2023-04-24T00:24:54;10.70;99.90
54124;DHT22;55741;53.252;5.788;2023-04-24T00:27:20;10.70;99.90
54124;DHT22;55741;53.252;5.788;2023-04-24T00:29:47;10.70;99.90
54124;DHT22;55741;53.252;5.788;2023-04-24T00:32:14;10.70;99.90
54124;DHT22;55741;53.252;5.788;2023-04-24T00:34:40;10.70;99.90
54124;DHT22;55741;53.252;5.788;2023-04-24T00:37:06;10.70;99.90
54124;DHT22;55741;53.252;5.788;2023-04-24T00:39:32;10.70;99.90
54124;DHT22;55741;53.252;5.788;2023-04-24T00:41:58;10.80;99.90
54124;DHT22;55741;53.252;5.788;2023-04-24T00:44:24;10.80;99.90
54124;DHT22;55741;53.252;5.788;2023-04-24T00:46:50;10.80;99.90
54124;DHT22;55741;53.252;5.788;2023-04-24T00:49:23;10.80;99.90
54124;DHT22;55741;53.252;5.788;2023-04-24T00:51:49;10.80;99.90
54124;DHT22;55741;53.252;5.788;2023-04-24T00:54:17;10.80;99.90
54124;DHT22;55741;53.252;5.788;2023-04-24T00:56:44;10.80;99.90
54124;DHT22;55741;53.252;5.788;2023-04-24T00:59:11;10.80;99.90
54124;DHT22;55741;53.252;5.788;2023-04-24T01:01:38;10.80;99.90
54124;DHT22;55741;53.252;5.788;2023-04-24T01:04:07;10.80;99.90
54124;DHT22;55741;53.252;5.788;2023-04-24T01:06:34;10.80;99.90
54124;DHT22;55741;53.252;5.788;2023-04-24T01:09:00;10.90;99.90
54124;DHT22;55741;53.252;5.788;2023-04-24T01:11:26;10.90;99.90
54124;DHT22;55741;53.252;5.788;2023-04-24T01:13:52;10.90;99.90
54124;DHT22;55741;53.252;5.788;2023-04-24T01:16:18;10.90;99.90
54124;DHT22;55741;53.252;5.788;2023-04-24T01:18:46;10.90;99.90
54124;DHT22;55741;53.252;5.788;2023-04-24T01:21:14;11.00;99.90
54124;DHT22;55741;53.252;5.788;2023-04-24T01:23:43;10.90;99.90
54124;DHT22;55741;53.252;5.788;2023-04-24T01:26:09;10.90;99.90
54124;DHT22;55741;53.252;5.788;2023-04-24T01:28:35;11.00;99.90
54124;DHT22;55741;53.252;5.788;2023-04-24T01:31:04;11.00;99.90
54124;DHT22;55741;53.252;5.788;2023-04-24T01:33:30;10.90;99.90
54124;DHT22;55741;53.252;5.788;2023-04-24T01:35:56;10.90;99.90
54124;DHT22;55741;53.252;5.788;2023-04-24T01:38:23;10.90;99.90
54124;DHT22;55741;53.252;5.788;2023-04-24T01:40:49;10.90;99.90
54124;DHT22;55741;53.252;5.788;2023-04-24T01:43:16;10.90;99.90
54124;DHT22;55741;53.252;5.788;2023-04-24T01:45:41;10.90;99.90
54124;DHT22;55741;53.252;5.788;2023-04-24T01:48:07;11.00;99.90
54124;DHT22;55741;53.252;5.788;2023-04-24T01:50:33;10.90;99.90
54124;DHT22;55741;53.252;5.788;2023-04-24T01:52:59;11.00;99.90
54124;DHT22;55741;53.252;5.788;2023-04-24T01:55:25;11.00;99.90
54124;DHT22;55741;53.252;5.788;2023-04-24T01:57:52;11.00;99.90
54124;DHT22;55741;53.252;5.788;2023-04-24T02:00:20;11.00;99.90
54124;DHT22;55741;53.252;5.788;2023-04-24T02:02:46;11.00;99.90
54124;DHT22;55741;53.252;5.788;2023-04-24T02:05:12;11.00;99.90
54124;DHT22;55741;53.252;5.788;2023-04-24T02:07:38;11.00;99.90
54124;DHT22;55741;53.252;5.788;2023-04-24T02:10:04;11.00;99.90
54124;DHT22;55741;53.252;5.788;2023-04-24T02:12:30;11.00;99.90
54124;DHT22;55741;53.252;5.788;2023-04-24T02:14:56;11.00;99.90
54124;DHT22;55741;53.252;5.788;2023-04-24T02:17:22;11.00;99.90
54124;DHT22;55741;53.252;5.788;2023-04-24T02:19:48;11.00;99.90
54124;DHT22;55741;53.252;5.788;2023-04-24T02:22:14;11.00;99.90
54124;DHT22;55741;53.252;5.788;2023-04-24T02:24:40;11.00;99.90
54124;DHT22;55741;53.252;5.788;2023-04-24T02:27:06;10.90;99.90
54124;DHT22;55741;53.252;5.788;2023-04-24T02:29:32;10.90;99.90
54124;DHT22;55741;53.252;5.788;2023-04-24T02:31:59;10.80;99.90
54124;DHT22;55741;53.252;5.788;2023-04-24T02:34:25;10.80;99.90
54124;DHT22;55741;53.252;5.788;2023-04-24T02:36:51;10.70;99.90
54124;DHT22;55741;53.252;5.788;2023-04-24T02:39:19;10.70;99.90
54124;DHT22;55741;53.252;5.788;2023-04-24T02:41:45;10.70;99.90
54124;DHT22;55741;53.252;5.788;2023-04-24T02:44:11;10.60;99.90
54124;DHT22;55741;53.252;5.788;2023-04-24T02:46:37;10.60;99.90
54124;DHT22;55741;53.252;5.788;2023-04-24T02:49:02;10.50;99.90
54124;DHT22;55741;53.252;5.788;2023-04-24T02:51:28;10.50;99.90
54124;DHT22;55741;53.252;5.788;2023-04-24T02:53:55;10.50;99.90
54124;DHT22;55741;53.252;5.788;2023-04-24T02:56:21;10.50;99.90
54124;DHT22;55741;53.252;5.788;2023-04-24T02:58:46;10.50;99.90
54124;DHT22;55741;53.252;5.788;2023-04-24T03:01:12;10.50;99.90
54124;DHT22;55741;53.252;5.788;2023-04-24T03:03:38;10.50;99.90
54124;DHT22;55741;53.252;5.788;2023-04-24T03:06:05;10.50;99.90
54124;DHT22;55741;53.252;5.788;2023-04-24T03:08:32;10.40;99.90
54124;DHT22;55741;53.252;5.788;2023-04-24T03:10:57;10.40;99.90
54124;DHT22;55741;53.252;5.788;2023-04-24T03:13:23;10.40;99.90
54124;DHT22;55741;53.252;5.788;2023-04-24T03:15:49;10.40;99.90
54124;DHT22;55741;53.252;5.788;2023-04-24T03:18:15;10.40;99.90
54124;DHT22;55741;53.252;5.788;2023-04-24T03:20:41;10.40;99.90
54124;DHT22;55741;53.252;5.788;2023-04-24T03:23:06;10.40;99.90
54124;DHT22;55741;53.252;5.788;2023-04-24T03:25:32;10.40;99.90
54124;DHT22;55741;53.252;5.788;2023-04-24T03:27:58;10.40;99.90
54124;DHT22;55741;53.252;5.788;2023-04-24T03:30:24;10.40;99.90
54124;DHT22;55741;53.252;5.788;2023-04-24T03:32:51;10.40;99.90
54124;DHT22;55741;53.252;5.788;2023-04-24T03:35:17;10.40;99.90
54124;DHT22;55741;53.252;5.788;2023-04-24T03:37:43;10.30;99.90
54124;DHT22;55741;53.252;5.788;2023-04-24T03:40:09;10.30;99.90
54124;DHT22;55741;53.252;5.788;2023-04-24T03:42:35;10.30;99.90
54124;DHT22;55741;53.252;5.788;2023-04-24T03:45:01;10.30;99.90
54124;DHT22;55741;53.252;5.788;2023-04-24T03:47:26;10.30;99.90
54124;DHT22;55741;53.252;5.788;2023-04-24T03:49:52;10.20;99.90
54124;DHT22;55741;53.252;5.788;2023-04-24T03:52:19;10.20;99.90
54124;DHT22;55741;53.252;5.788;2023-04-24T03:54:45;10.20;99.90
54124;DHT22;55741;53.252;5.788;2023-04-24T03:57:11;10.20;99.90
54124;DHT22;55741;53.252;5.788;2023-04-24T03:59:37;10.20;99.90
54124;DHT22;55741;53.252;5.788;2023-04-24T04:02:03;10.20;99.90
54124;DHT22;55741;53.252;5.788;2023-04-24T04:04:28;10.20;99.90
54124;DHT22;55741;53.252;5.788;2023-04-24T04:06:54;10.10;99.90
54124;DHT22;55741;53.252;5.788;2023-04-24T04:09:20;10.10;99.90
54124;DHT22;55741;53.252;5.788;2023-04-24T04:11:46;10.10;99.90
54124;DHT22;55741;53.252;5.788;2023-04-24T04:14:11;10.10;99.90
54124;DHT22;55741;53.252;5.788;2023-04-24T04:16:37;10.10;99.90
54124;DHT22;55741;53.252;5.788;2023-04-24T04:19:04;10.10;99.90
54124;DHT22;55741;53.252;5.788;2023-04-24T04:21:31;10.10;99.90
54124;DHT22;55741;53.252;5.788;2023-04-24T04:23:57;10.10;99.90
54124;DHT22;55741;53.252;5.788;2023-04-24T04:26:23;10.10;99.90
54124;DHT22;55741;53.252;5.788;2023-04-24T04:28:52;10.00;99.90
54124;DHT22;55741;53.252;5.788;2023-04-24T04:31:19;10.00;99.90
54124;DHT22;55741;53.252;5.788;2023-04-24T04:33:46;10.00;99.90
54124;DHT22;55741;53.252;5.788;2023-04-24T04:36:12;10.00;99.90
54124;DHT22;55741;53.252;5.788;2023-04-24T04:38:38;10.00;99.90
54124;DHT22;55741;53.252;5.788;2023-04-24T04:41:06;10.00;99.90
54124;DHT22;55741;53.252;5.788;2023-04-24T04:43:32;10.00;99.90
54124;DHT22;55741;53.252;5.788;2023-04-24T04:45:59;10.00;99.90
54124;DHT22;55741;53.252;5.788;2023-04-24T04:48:27;9.90;99.90
54124;DHT22;55741;53.252;5.788;2023-04-24T04:50:52;9.90;99.90
54124;DHT22;55741;53.252;5.788;2023-04-24T04:53:18;10.00;99.90
54124;DHT22;55741;53.252;5.788;2023-04-24T04:55:44;9.90;99.90
54124;DHT22;55741;53.252;5.788;2023-04-24T04:58:11;9.90;99.90
54124;DHT22;55741;53.252;5.788;2023-04-24T05:00:39;9.90;99.90
54124;DHT22;55741;53.252;5.788;2023-04-24T05:03:04;9.90;99.90
54124;DHT22;55741;53.252;5.788;2023-04-24T05:05:30;9.90;99.90
54124;DHT22;55741;53.252;5.788;2023-04-24T05:07:56;10.00;99.90
54124;DHT22;55741;53.252;5.788;2023-04-24T05:10:22;9.90;99.90
54124;DHT22;55741;53.252;5.788;2023-04-24T05:12:48;9.90;99.90
54124;DHT22;55741;53.252;5.788;2023-04-24T05:15:15;9.90;99.90
54124;DHT22;55741;53.252;5.788;2023-04-24T05:17:40;9.90;99.90
54124;DHT22;55741;53.252;5.788;2023-04-24T05:20:07;9.90;99.90
54124;DHT22;55741;53.252;5.788;2023-04-24T05:22:33;9.90;99.90
54124;DHT22;55741;53.252;5.788;2023-04-24T05:24:59;9.90;99.90
54124;DHT22;55741;53.252;5.788;2023-04-24T05:27:25;9.90;99.90
54124;DHT22;55741;53.252;5.788;2023-04-24T05:29:51;9.90;99.90
54124;DHT22;55741;53.252;5.788;2023-04-24T05:32:16;9.80;99.90
54124;DHT22;55741;53.252;5.788;2023-04-24T05:34:44;9.80;99.90
54124;DHT22;55741;53.252;5.788;2023-04-24T05:37:10;9.80;99.90
54124;DHT22;55741;53.252;5.788;2023-04-24T05:39:36;9.80;99.90
54124;DHT22;55741;53.252;5.788;2023-04-24T05:42:02;9.80;99.90
54124;DHT22;55741;53.252;5.788;2023-04-24T05:44:30;9.80;99.90
54124;DHT22;55741;53.252;5.788;2023-04-24T05:46:56;9.80;99.90
54124;DHT22;55741;53.252;5.788;2023-04-24T05:49:22;9.80;99.90
54124;DHT22;55741;53.252;5.788;2023-04-24T05:51:48;9.80;99.90
54124;DHT22;55741;53.252;5.788;2023-04-24T05:54:14;9.80;99.90
54124;DHT22;55741;53.252;5.788;2023-04-24T05:56:40;9.80;99.90
54124;DHT22;55741;53.252;5.788;2023-04-24T05:59:06;9.80;99.90
54124;DHT22;55741;53.252;5.788;2023-04-24T06:01:33;9.70;99.90
54124;DHT22;55741;53.252;5.788;2023-04-24T06:03:59;9.70;99.90
54124;DHT22;55741;53.252;5.788;2023-04-24T06:06:25;9.70;99.90
54124;DHT22;55741;53.252;5.788;2023-04-24T06:08:51;9.70;99.90
54124;DHT22;55741;53.252;5.788;2023-04-24T06:11:17;9.70;99.90
54124;DHT22;55741;53.252;5.788;2023-04-24T06:13:43;9.70;99.90
54124;DHT22;55741;53.252;5.788;2023-04-24T06:16:09;9.70;99.90
54124;DHT22;55741;53.252;5.788;2023-04-24T06:18:35;9.70;99.90
54124;DHT22;55741;53.252;5.788;2023-04-24T06:21:01;9.70;99.90
54124;DHT22;55741;53.252;5.788;2023-04-24T06:23:27;9.60;99.90
54124;DHT22;55741;53.252;5.788;2023-04-24T06:25:52;9.60;99.90
54124;DHT22;55741;53.252;5.788;2023-04-24T06:28:18;9.60;99.90
54124;DHT22;55741;53.252;5.788;2023-04-24T06:30:44;9.60;99.90
54124;DHT22;55741;53.252;5.788;2023-04-24T06:33:10;9.60;99.90
54124;DHT22;55741;53.252;5.788;2023-04-24T06:35:38;9.60;99.90
54124;DHT22;55741;53.252;5.788;2023-04-24T06:38:03;9.60;99.90
54124;DHT22;55741;53.252;5.788;2023-04-24T06:40:29;9.50;99.90
54124;DHT22;55741;53.252;5.788;2023-04-24T06:42:55;9.50;99.90
54124;DHT22;55741;53.252;5.788;2023-04-24T06:45:23;9.50;99.90
54124;DHT22;55741;53.252;5.788;2023-04-24T06:47:49;9.40;99.90
54124;DHT22;55741;53.252;5.788;2023-04-24T06:50:15;9.40;99.90
54124;DHT22;55741;53.252;5.788;2023-04-24T06:52:41;9.40;99.90
54124;DHT22;55741;53.252;5.788;2023-04-24T06:55:07;9.40;99.90
54124;DHT22;55741;53.252;5.788;2023-04-24T06:57:33;9.40;99.90
54124;DHT22;55741;53.252;5.788;2023-04-24T06:59:59;9.40;99.90
54124;DHT22;55741;53.252;5.788;2023-04-24T07:02:25;9.40;99.90
54124;DHT22;55741;53.252;5.788;2023-04-24T07:04:51;9.40;99.90
54124;DHT22;55741;53.252;5.788;2023-04-24T07:07:16;9.40;99.90
54124;DHT22;55741;53.252;5.788;2023-04-24T07:09:42;9.30;99.90
54124;DHT22;55741;53.252;5.788;2023-04-24T07:12:10;9.30;99.90
54124;DHT22;55741;53.252;5.788;2023-04-24T07:14:36;9.30;99.90
54124;DHT22;55741;53.252;5.788;2023-04-24T07:17:06;9.30;99.90
54124;DHT22;55741;53.252;5.788;2023-04-24T07:19:34;9.30;99.90
54124;DHT22;55741;53.252;5.788;2023-04-24T07:22:01;9.20;99.90
54124;DHT22;55741;53.252;5.788;2023-04-24T07:24:27;9.20;99.90
54124;DHT22;55741;53.252;5.788;2023-04-24T07:26:54;9.20;99.90
54124;DHT22;55741;53.252;5.788;2023-04-24T07:29:20;9.20;99.90
54124;DHT22;55741;53.252;5.788;2023-04-24T07:31:46;9.20;99.90
54124;DHT22;55741;53.252;5.788;2023-04-24T07:34:12;9.20;99.90
54124;DHT22;55741;53.252;5.788;2023-04-24T07:36:41;9.20;99.90
54124;DHT22;55741;53.252;5.788;2023-04-24T07:39:07;9.20;99.90
54124;DHT22;55741;53.252;5.788;2023-04-24T07:41:33;9.20;99.90
54124;DHT22;55741;53.252;5.788;2023-04-24T07:43:59;9.20;99.90
54124;DHT22;55741;53.252;5.788;2023-04-24T07:46:25;9.20;99.90
54124;DHT22;55741;53.252;5.788;2023-04-24T07:48:55;9.30;99.90
54124;DHT22;55741;53.252;5.788;2023-04-24T07:51:21;9.30;99.90
54124;DHT22;55741;53.252;5.788;2023-04-24T07:53:47;9.30;99.90
54124;DHT22;55741;53.252;5.788;2023-04-24T07:56:13;9.30;99.90
54124;DHT22;55741;53.252;5.788;2023-04-24T07:58:39;9.40;99.90
54124;DHT22;55741;53.252;5.788;2023-04-24T08:01:05;9.40;99.90
54124;DHT22;55741;53.252;5.788;2023-04-24T08:03:31;9.40;99.90
54124;DHT22;55741;53.252;5.788;2023-04-24T08:05:57;9.40;99.90
54124;DHT22;55741;53.252;5.788;2023-04-24T08:08:23;9.40;99.90
54124;DHT22;55741;53.252;5.788;2023-04-24T08:10:49;9.40;99.90
54124;DHT22;55741;53.252;5.788;2023-04-24T08:13:15;9.40;99.90
54124;DHT22;55741;53.252;5.788;2023-04-24T08:15:41;9.40;99.90
54124;DHT22;55741;53.252;5.788;2023-04-24T08:18:07;9.50;99.90
54124;DHT22;55741;53.252;5.788;2023-04-24T08:20:33;9.50;99.90
54124;DHT22;55741;53.252;5.788;2023-04-24T08:22:59;9.50;99.90
54124;DHT22;55741;53.252;5.788;2023-04-24T08:25:25;9.50;99.90
54124;DHT22;55741;53.252;5.788;2023-04-24T08:27:51;9.50;99.90
54124;DHT22;55741;53.252;5.788;2023-04-24T08:30:17;9.50;99.90
54124;DHT22;55741;53.252;5.788;2023-04-24T08:32:43;9.50;99.90
54124;DHT22;55741;53.252;5.788;2023-04-24T08:35:09;9.50;99.90
54124;DHT22;55741;53.252;5.788;2023-04-24T08:37:37;9.60;99.90
54124;DHT22;55741;53.252;5.788;2023-04-24T08:40:07;9.60;99.90
54124;DHT22;55741;53.252;5.788;2023-04-24T08:42:37;9.70;99.90
54124;DHT22;55741;53.252;5.788;2023-04-24T08:45:03;9.80;99.90
54124;DHT22;55741;53.252;5.788;2023-04-24T08:47:30;9.80;99.90
54124;DHT22;55741;53.252;5.788;2023-04-24T08:49:57;9.90;99.90
54124;DHT22;55741;53.252;5.788;2023-04-24T08:52:25;10.00;99.90
54124;DHT22;55741;53.252;5.788;2023-04-24T08:54:52;10.00;99.90
54124;DHT22;55741;53.252;5.788;2023-04-24T08:57:19;10.10;99.90
54124;DHT22;55741;53.252;5.788;2023-04-24T08:59:45;10.20;99.90
54124;DHT22;55741;53.252;5.788;2023-04-24T09:02:13;10.30;99.90
54124;DHT22;55741;53.252;5.788;2023-04-24T09:04:40;10.40;99.90
54124;DHT22;55741;53.252;5.788;2023-04-24T09:07:06;10.40;99.90
54124;DHT22;55741;53.252;5.788;2023-04-24T09:09:33;10.50;99.90
54124;DHT22;55741;53.252;5.788;2023-04-24T09:12:00;10.50;99.90
54124;DHT22;55741;53.252;5.788;2023-04-24T09:14:26;10.60;99.90
54124;DHT22;55741;53.252;5.788;2023-04-24T09:16:53;10.70;99.90
54124;DHT22;55741;53.252;5.788;2023-04-24T09:19:19;10.80;99.90
54124;DHT22;55741;53.252;5.788;2023-04-24T09:21:47;10.90;99.90
54124;DHT22;55741;53.252;5.788;2023-04-24T09:24:18;11.00;99.90
54124;DHT22;55741;53.252;5.788;2023-04-24T09:26:44;11.10;99.90
54124;DHT22;55741;53.252;5.788;2023-04-24T09:29:17;11.10;99.90
54124;DHT22;55741;53.252;5.788;2023-04-24T09:31:45;11.10;99.90
54124;DHT22;55741;53.252;5.788;2023-04-24T09:34:11;11.10;99.90
54124;DHT22;55741;53.252;5.788;2023-04-24T09:36:39;11.10;99.90
54124;DHT22;55741;53.252;5.788;2023-04-24T09:39:09;11.10;99.90
54124;DHT22;55741;53.252;5.788;2023-04-24T09:41:51;11.00;99.90
54124;DHT22;55741;53.252;5.788;2023-04-24T09:44:22;11.00;99.90
54124;DHT22;55741;53.252;5.788;2023-04-24T09:46:55;11.10;99.90
54124;DHT22;55741;53.252;5.788;2023-04-24T09:49:29;11.10;99.90
54124;DHT22;55741;53.252;5.788;2023-04-24T09:52:06;11.10;99.90
54124;DHT22;55741;53.252;5.788;2023-04-24T09:54:33;11.10;99.90
54124;DHT22;55741;53.252;5.788;2023-04-24T09:56:59;11.10;99.90
54124;DHT22;55741;53.252;5.788;2023-04-24T09:59:28;11.00;99.90
54124;DHT22;55741;53.252;5.788;2023-04-24T10:01:54;11.00;99.90
54124;DHT22;55741;53.252;5.788;2023-04-24T10:04:21;11.00;99.90
54124;DHT22;55741;53.252;5.788;2023-04-24T10:06:49;11.00;99.90
54124;DHT22;55741;53.252;5.788;2023-04-24T10:09:20;10.90;99.90
54124;DHT22;55741;53.252;5.788;2023-04-24T10:11:48;10.90;99.90
54124;DHT22;55741;53.252;5.788;2023-04-24T10:14:23;10.80;99.90
54124;DHT22;55741;53.252;5.788;2023-04-24T10:16:52;10.80;99.90
54124;DHT22;55741;53.252;5.788;2023-04-24T10:19:18;10.90;99.90
54124;DHT22;55741;53.252;5.788;2023-04-24T10:21:44;10.90;99.90
54124;DHT22;55741;53.252;5.788;2023-04-24T10:24:14;10.80;99.90
54124;DHT22;55741;53.252;5.788;2023-04-24T10:26:41;10.80;99.90
54124;DHT22;55741;53.252;5.788;2023-04-24T10:29:08;10.80;99.90
54124;DHT22;55741;53.252;5.788;2023-04-24T10:31:36;10.80;99.90
54124;DHT22;55741;53.252;5.788;2023-04-24T10:34:03;10.70;99.90
54124;DHT22;55741;53.252;5.788;2023-04-24T10:36:30;10.70;99.90
54124;DHT22;55741;53.252;5.788;2023-04-24T10:39:01;10.70;99.90
54124;DHT22;55741;53.252;5.788;2023-04-24T10:41:30;10.80;99.90
54124;DHT22;55741;53.252;5.788;2023-04-24T10:44:10;10.80;99.90
54124;DHT22;55741;53.252;5.788;2023-04-24T10:46:37;10.80;99.90
54124;DHT22;55741;53.252;5.788;2023-04-24T10:49:07;10.80;99.90
54124;DHT22;55741;53.252;5.788;2023-04-24T10:51:52;10.50;99.90
54124;DHT22;55741;53.252;5.788;2023-04-24T10:56:50;10.10;99.90
54124;DHT22;55741;53.252;5.788;2023-04-24T10:59:27;9.90;99.90
54124;DHT22;55741;53.252;5.788;2023-04-24T11:01:54;9.70;99.90
54124;DHT22;55741;53.252;5.788;2023-04-24T11:04:32;9.60;99.90
54124;DHT22;55741;53.252;5.788;2023-04-24T11:06:59;9.60;99.90
54124;DHT22;55741;53.252;5.788;2023-04-24T11:09:30;9.60;99.90
54124;DHT22;55741;53.252;5.788;2023-04-24T11:12:04;9.70;99.90
54124;DHT22;55741;53.252;5.788;2023-04-24T11:17:36;9.80;99.90
54124;DHT22;55741;53.252;5.788;2023-04-24T11:20:16;10.00;99.90
54124;DHT22;55741;53.252;5.788;2023-04-24T11:22:42;10.10;99.90
54124;DHT22;55741;53.252;5.788;2023-04-24T11:25:09;10.20;99.90
54124;DHT22;55741;53.252;5.788;2023-04-24T11:27:42;10.30;99.90
54124;DHT22;55741;53.252;5.788;2023-04-24T11:30:08;10.30;99.90
54124;DHT22;55741;53.252;5.788;2023-04-24T11:32:41;10.30;99.90
54124;DHT22;55741;53.252;5.788;2023-04-24T11:35:16;10.40;99.90
54124;DHT22;55741;53.252;5.788;2023-04-24T11:37:48;10.40;99.90
54124;DHT22;55741;53.252;5.788;2023-04-24T11:40:18;10.30;99.90
54124;DHT22;55741;53.252;5.788;2023-04-24T11:42:51;10.20;99.90
54124;DHT22;55741;53.252;5.788;2023-04-24T11:45:21;10.20;99.90
54124;DHT22;55741;53.252;5.788;2023-04-24T11:47:47;10.20;99.90
54124;DHT22;55741;53.252;5.788;2023-04-24T11:50:15;10.10;99.90
54124;DHT22;55741;53.252;5.788;2023-04-24T11:52:44;10.20;99.90
54124;DHT22;55741;53.252;5.788;2023-04-24T11:57:49;10.50;99.90
54124;DHT22;55741;53.252;5.788;2023-04-24T12:00:29;10.60;99.90
54124;DHT22;55741;53.252;5.788;2023-04-24T12:03:09;10.60;99.90
54124;DHT22;55741;53.252;5.788;2023-04-24T12:05:35;10.70;99.90
54124;DHT22;55741;53.252;5.788;2023-04-24T12:08:01;11.00;99.90
54124;DHT22;55741;53.252;5.788;2023-04-24T12:10:29;11.20;99.90
54124;DHT22;55741;53.252;5.788;2023-04-24T12:12:57;11.40;99.90
54124;DHT22;55741;53.252;5.788;2023-04-24T12:15:23;11.40;99.90
54124;DHT22;55741;53.252;5.788;2023-04-24T12:17:51;11.60;99.90
54124;DHT22;55741;53.252;5.788;2023-04-24T12:20:23;11.70;99.90
54124;DHT22;55741;53.252;5.788;2023-04-24T12:22:52;11.60;99.90
54124;DHT22;55741;53.252;5.788;2023-04-24T12:25:23;11.60;99.90
54124;DHT22;55741;53.252;5.788;2023-04-24T12:27:54;11.70;99.90
54124;DHT22;55741;53.252;5.788;2023-04-24T12:30:21;11.70;99.90
54124;DHT22;55741;53.252;5.788;2023-04-24T12:32:51;11.70;99.90
54124;DHT22;55741;53.252;5.788;2023-04-24T12:35:22;11.70;99.90
54124;DHT22;55741;53.252;5.788;2023-04-24T12:37:48;11.50;99.90
54124;DHT22;55741;53.252;5.788;2023-04-24T12:40:16;11.50;99.90
54124;DHT22;55741;53.252;5.788;2023-04-24T12:42:52;11.50;99.90
54124;DHT22;55741;53.252;5.788;2023-04-24T12:45:20;11.50;99.90
54124;DHT22;55741;53.252;5.788;2023-04-24T12:47:48;11.40;99.90
54124;DHT22;55741;53.252;5.788;2023-04-24T12:50:15;11.40;99.90
54124;DHT22;55741;53.252;5.788;2023-04-24T12:52:42;11.50;99.90
54124;DHT22;55741;53.252;5.788;2023-04-24T12:55:08;11.30;99.90
54124;DHT22;55741;53.252;5.788;2023-04-24T12:57:36;11.30;99.90
54124;DHT22;55741;53.252;5.788;2023-04-24T13:00:03;11.20;99.90
54124;DHT22;55741;53.252;5.788;2023-04-24T13:02:29;11.10;99.90
54124;DHT22;55741;53.252;5.788;2023-04-24T13:04:59;11.00;99.90
54124;DHT22;55741;53.252;5.788;2023-04-24T13:07:25;10.90;99.90
54124;DHT22;55741;53.252;5.788;2023-04-24T13:09:52;10.60;99.90
54124;DHT22;55741;53.252;5.788;2023-04-24T13:12:18;10.50;99.90
54124;DHT22;55741;53.252;5.788;2023-04-24T13:14:45;10.30;99.90
54124;DHT22;55741;53.252;5.788;2023-04-24T13:17:11;10.20;99.90
54124;DHT22;55741;53.252;5.788;2023-04-24T13:19:43;10.20;99.90
54124;DHT22;55741;53.252;5.788;2023-04-24T13:22:10;10.20;99.90
54124;DHT22;55741;53.252;5.788;2023-04-24T13:24:37;10.20;99.90
54124;DHT22;55741;53.252;5.788;2023-04-24T13:27:03;10.10;99.90
54124;DHT22;55741;53.252;5.788;2023-04-24T13:29:29;10.00;99.90
54124;DHT22;55741;53.252;5.788;2023-04-24T13:31:55;9.90;99.90
54124;DHT22;55741;53.252;5.788;2023-04-24T13:34:25;9.90;99.90
54124;DHT22;55741;53.252;5.788;2023-04-24T13:36:53;9.90;99.90
54124;DHT22;55741;53.252;5.788;2023-04-24T13:39:19;9.90;99.90
54124;DHT22;55741;53.252;5.788;2023-04-24T13:41:45;9.90;99.90
54124;DHT22;55741;53.252;5.788;2023-04-24T13:44:13;9.90;99.90
54124;DHT22;55741;53.252;5.788;2023-04-24T13:46:42;9.90;99.90
54124;DHT22;55741;53.252;5.788;2023-04-24T13:49:10;10.00;99.90
54124;DHT22;55741;53.252;5.788;2023-04-24T13:51:35;10.10;99.90
54124;DHT22;55741;53.252;5.788;2023-04-24T13:54:01;10.10;99.90
54124;DHT22;55741;53.252;5.788;2023-04-24T13:56:27;10.10;99.90
54124;DHT22;55741;53.252;5.788;2023-04-24T13:58:53;10.10;99.90
54124;DHT22;55741;53.252;5.788;2023-04-24T14:01:22;10.10;99.90
54124;DHT22;55741;53.252;5.788;2023-04-24T14:03:52;10.10;99.90
54124;DHT22;55741;53.252;5.788;2023-04-24T14:06:21;10.10;99.90
54124;DHT22;55741;53.252;5.788;2023-04-24T14:08:47;10.00;99.90
54124;DHT22;55741;53.252;5.788;2023-04-24T14:11:13;10.00;99.90
54124;DHT22;55741;53.252;5.788;2023-04-24T14:13:41;10.00;99.90
54124;DHT22;55741;53.252;5.788;2023-04-24T14:16:07;10.00;99.90
54124;DHT22;55741;53.252;5.788;2023-04-24T14:18:32;10.10;99.90
54124;DHT22;55741;53.252;5.788;2023-04-24T14:20:58;10.10;99.90
54124;DHT22;55741;53.252;5.788;2023-04-24T14:23:24;10.10;99.90
54124;DHT22;55741;53.252;5.788;2023-04-24T14:25:50;10.00;99.90
54124;DHT22;55741;53.252;5.788;2023-04-24T14:28:21;10.00;99.90
54124;DHT22;55741;53.252;5.788;2023-04-24T14:30:47;9.90;99.90
54124;DHT22;55741;53.252;5.788;2023-04-24T14:33:13;9.90;99.90
54124;DHT22;55741;53.252;5.788;2023-04-24T14:35:41;9.90;99.90
54124;DHT22;55741;53.252;5.788;2023-04-24T14:38:10;9.80;99.90
54124;DHT22;55741;53.252;5.788;2023-04-24T14:40:36;9.90;99.90
54124;DHT22;55741;53.252;5.788;2023-04-24T14:43:02;9.90;99.90
54124;DHT22;55741;53.252;5.788;2023-04-24T14:45:28;9.90;99.90
54124;DHT22;55741;53.252;5.788;2023-04-24T14:47:57;9.90;99.90
54124;DHT22;55741;53.252;5.788;2023-04-24T14:50:23;9.90;99.90
54124;DHT22;55741;53.252;5.788;2023-04-24T14:52:49;9.80;99.90
54124;DHT22;55741;53.252;5.788;2023-04-24T14:55:15;9.70;99.90
54124;DHT22;55741;53.252;5.788;2023-04-24T14:57:42;9.70;99.90
54124;DHT22;55741;53.252;5.788;2023-04-24T15:00:08;9.60;99.90
54124;DHT22;55741;53.252;5.788;2023-04-24T15:02:36;9.60;99.90
54124;DHT22;55741;53.252;5.788;2023-04-24T15:05:06;9.60;99.90
54124;DHT22;55741;53.252;5.788;2023-04-24T15:07:32;9.50;99.90
54124;DHT22;55741;53.252;5.788;2023-04-24T15:09:58;9.40;99.90
54124;DHT22;55741;53.252;5.788;2023-04-24T15:12:24;9.30;99.90
54124;DHT22;55741;53.252;5.788;2023-04-24T15:14:50;9.30;99.90
54124;DHT22;55741;53.252;5.788;2023-04-24T15:17:16;9.30;99.90
54124;DHT22;55741;53.252;5.788;2023-04-24T15:19:42;9.30;99.90
54124;DHT22;55741;53.252;5.788;2023-04-24T15:22:07;9.30;99.90
54124;DHT22;55741;53.252;5.788;2023-04-24T15:24:33;9.40;99.90
54124;DHT22;55741;53.252;5.788;2023-04-24T15:27:00;9.40;99.90
54124;DHT22;55741;53.252;5.788;2023-04-24T15:29:27;9.40;99.90
54124;DHT22;55741;53.252;5.788;2023-04-24T15:31:53;9.30;99.90
54124;DHT22;55741;53.252;5.788;2023-04-24T15:34:19;9.30;99.90
54124;DHT22;55741;53.252;5.788;2023-04-24T15:36:45;9.30;99.90
54124;DHT22;55741;53.252;5.788;2023-04-24T15:39:11;9.20;99.90
54124;DHT22;55741;53.252;5.788;2023-04-24T15:41:37;9.20;99.90
54124;DHT22;55741;53.252;5.788;2023-04-24T15:44:03;9.10;99.90